sensor_id;sensor_type;location;lat;lon;timestamp;pressure;altitude;pressure_sealevel;temperature;humidity
25855;BME280;13680;49.936;11.344;2023-03-01T00:00:25;97691.09;;;-0.51;65.21
25855;BME280;13680;49.936;11.344;2023-03-01T00:02:51;97692.88;;;-0.24;64.98
25855;BME280;13680;49.936;11.344;2023-03-01T00:05:16;97680.06;;;-0.27;64.33
25855;BME280;13680;49.936;11.344;2023-03-01T00:07:41;97682.31;;;-0.31;64.44
25855;BME280;13680;49.936;11.344;2023-03-01T00:10:07;97688.63;;;-0.39;64.84
25855;BME280;13680;49.936;11.344;2023-03-01T00:12:33;97680.09;;;-0.34;64.59
25855;BME280;13680;49.936;11.344;2023-03-01T00:14:58;97680.09;;;-0.47;65.04
25855;BME280;13680;49.936;11.344;2023-03-01T00:17:23;97670.13;;;-0.32;64.73
25855;BME280;13680;49.936;11.344;2023-03-01T00:19:48;97672.94;;;-0.27;64.30
25855;BME280;13680;49.936;11.344;2023-03-01T00:22:14;97671.16;;;-0.33;64.64
25855;BME280;13680;49.936;11.344;2023-03-01T00:24:39;97670.31;;;-0.27;64.56
25855;BME280;13680;49.936;11.344;2023-03-01T00:27:04;97663.00;;;-0.31;64.16
25855;BME280;13680;49.936;11.344;2023-03-01T00:29:30;97657.50;;;-0.23;64.25
25855;BME280;13680;49.936;11.344;2023-03-01T00:31:55;97658.13;;;-0.28;63.68
25855;BME280;13680;49.936;11.344;2023-03-01T00:34:20;97660.97;;;-0.36;64.67
25855;BME280;13680;49.936;11.344;2023-03-01T00:36:46;97654.91;;;-0.43;64.79
25855;BME280;13680;49.936;11.344;2023-03-01T00:39:13;97656.75;;;-0.51;64.88
25855;BME280;13680;49.936;11.344;2023-03-01T00:41:39;97654.91;;;-0.43;64.91
25855;BME280;13680;49.936;11.344;2023-03-01T00:44:05;97646.38;;;-0.52;65.25
25855;BME280;13680;49.936;11.344;2023-03-01T00:46:30;97658.34;;;-0.36;64.64
25855;BME280;13680;49.936;11.344;2023-03-01T00:48:56;97658.16;;;-0.41;64.40
25855;BME280;13680;49.936;11.344;2023-03-01T00:51:23;97660.38;;;-0.38;64.24
25855;BME280;13680;49.936;11.344;2023-03-01T00:53:51;97663.84;;;-0.58;65.21
25855;BME280;13680;49.936;11.344;2023-03-01T00:56:17;97660.19;;;-0.43;64.51
25855;BME280;13680;49.936;11.344;2023-03-01T00:58:42;97655.31;;;-0.67;65.01
25855;BME280;13680;49.936;11.344;2023-03-01T01:01:25;97655.94;;;-0.64;64.86
25855;BME280;13680;49.936;11.344;2023-03-01T01:03:55;97643.94;;;-0.60;65.33
25855;BME280;13680;49.936;11.344;2023-03-01T01:06:26;97648.19;;;-0.53;64.99
25855;BME280;13680;49.936;11.344;2023-03-01T01:08:53;97643.31;;;-0.49;64.83
25855;BME280;13680;49.936;11.344;2023-03-01T01:11:19;97637.81;;;-0.47;64.79
25855;BME280;13680;49.936;11.344;2023-03-01T01:13:46;97639.84;;;-0.43;64.15
25855;BME280;13680;49.936;11.344;2023-03-01T01:16:12;97633.41;;;-0.67;65.06
25855;BME280;13680;49.936;11.344;2023-03-01T01:18:38;97624.03;;;-0.50;64.22
25855;BME280;13680;49.936;11.344;2023-03-01T01:21:13;97619.91;;;-0.39;64.14
25855;BME280;13680;49.936;11.344;2023-03-01T01:23:39;97611.84;;;-0.57;64.47
25855;BME280;13680;49.936;11.344;2023-03-01T01:26:11;97616.91;;;-0.49;64.44
25855;BME280;13680;49.936;11.344;2023-03-01T01:28:37;97611.81;;;-0.44;64.47
25855;BME280;13680;49.936;11.344;2023-03-01T01:31:03;97607.59;;;-0.58;64.69
25855;BME280;13680;49.936;11.344;2023-03-01T01:33:28;97610.44;;;-0.73;65.34
25855;BME280;13680;49.936;11.344;2023-03-01T01:35:54;97606.16;;;-0.61;64.88
25855;BME280;13680;49.936;11.344;2023-03-01T01:38:19;97602.09;;;-0.57;64.22
25855;BME280;13680;49.936;11.344;2023-03-01T01:40:47;97601.91;;;-0.69;64.79
25855;BME280;13680;49.936;11.344;2023-03-01T01:43:25;97598.88;;;-0.72;65.17
25855;BME280;13680;49.936;11.344;2023-03-01T01:45:50;97590.31;;;-0.61;64.76
25855;BME280;13680;49.936;11.344;2023-03-01T01:48:23;97589.91;;;-0.78;65.35
25855;BME280;13680;49.936;11.344;2023-03-01T01:50:59;97589.09;;;-0.72;65.13
25855;BME280;13680;49.936;11.344;2023-03-01T01:53:26;97594.59;;;-0.60;64.53
25855;BME280;13680;49.936;11.344;2023-03-01T01:55:54;97584.84;;;-0.66;64.74
25855;BME280;13680;49.936;11.344;2023-03-01T01:58:24;97575.91;;;-0.65;64.77
25855;BME280;13680;49.936;11.344;2023-03-01T02:00:52;97577.13;;;-0.68;64.50
25855;BME280;13680;49.936;11.344;2023-03-01T02:03:22;97575.13;;;-0.92;63.84
25855;BME280;13680;49.936;11.344;2023-03-01T02:08:23;97568.81;;;-0.71;65.03
25855;BME280;13680;49.936;11.344;2023-03-01T02:10:51;97565.59;;;-0.87;64.59
25855;BME280;13680;49.936;11.344;2023-03-01T02:13:18;97567.59;;;-0.89;65.55
25855;BME280;13680;49.936;11.344;2023-03-01T02:15:43;97571.03;;;-0.88;65.37
25855;BME280;13680;49.936;11.344;2023-03-01T02:18:12;97565.97;;;-0.76;64.79
25855;BME280;13680;49.936;11.344;2023-03-01T02:23:41;97567.59;;;-0.89;65.04
25855;BME280;13680;49.936;11.344;2023-03-01T02:26:21;97556.63;;;-0.79;65.12
25855;BME280;13680;49.936;11.344;2023-03-01T02:28:50;97558.25;;;-0.71;64.21
25855;BME280;13680;49.936;11.344;2023-03-01T02:31:18;97557.03;;;-1.02;65.67
25855;BME280;13680;49.936;11.344;2023-03-01T02:34:03;97564.75;;;-0.87;65.54
25855;BME280;13680;49.936;11.344;2023-03-01T02:36:35;97560.88;;;-0.78;64.73
25855;BME280;13680;49.936;11.344;2023-03-01T02:39:02;97558.41;;;-0.73;64.52
25855;BME280;13680;49.936;11.344;2023-03-01T02:41:33;97549.28;;;-0.77;64.96
25855;BME280;13680;49.936;11.344;2023-03-01T02:43:59;97552.97;;;-0.71;64.44
25855;BME280;13680;49.936;11.344;2023-03-01T02:46:25;97545.44;;;-0.74;64.30
25855;BME280;13680;49.936;11.344;2023-03-01T02:48:53;97539.13;;;-0.73;64.49
25855;BME280;13680;49.936;11.344;2023-03-01T02:51:32;97544.78;;;-0.63;63.76
25855;BME280;13680;49.936;11.344;2023-03-01T02:54:12;97542.19;;;-0.76;64.38
25855;BME280;13680;49.936;11.344;2023-03-01T02:56:38;97542.00;;;-0.75;64.07
25855;BME280;13680;49.936;11.344;2023-03-01T02:59:04;97542.41;;;-0.85;65.01
25855;BME280;13680;49.936;11.344;2023-03-01T03:01:30;97545.25;;;-0.79;64.55
25855;BME280;13680;49.936;11.344;2023-03-01T03:04:13;97537.56;;;-0.88;64.49
25855;BME280;13680;49.936;11.344;2023-03-01T03:06:43;97539.56;;;-0.90;64.53
25855;BME280;13680;49.936;11.344;2023-03-01T03:09:09;97534.69;;;-0.86;65.23
25855;BME280;13680;49.936;11.344;2023-03-01T03:11:34;97525.81;;;-1.25;65.83
25855;BME280;13680;49.936;11.344;2023-03-01T03:14:02;97528.66;;;-1.13;65.69
25855;BME280;13680;49.936;11.344;2023-03-01T03:16:27;97524.56;;;-0.96;65.58
25855;BME280;13680;49.936;11.344;2023-03-01T03:18:55;97520.13;;;-1.29;66.71
25855;BME280;13680;49.936;11.344;2023-03-01T03:21:20;97520.13;;;-1.22;66.50
25855;BME280;13680;49.936;11.344;2023-03-01T03:23:45;97512.22;;;-1.29;66.74
25855;BME280;13680;49.936;11.344;2023-03-01T03:26:10;97515.03;;;-1.24;66.73
25855;BME280;13680;49.936;11.344;2023-03-01T03:28:38;97520.13;;;-1.16;66.38
25855;BME280;13680;49.936;11.344;2023-03-01T03:31:06;97506.72;;;-1.21;66.17
25855;BME280;13680;49.936;11.344;2023-03-01T03:33:32;97512.59;;;-1.05;66.04
25855;BME280;13680;49.936;11.344;2023-03-01T03:35:58;97514.44;;;-1.06;65.21
25855;BME280;13680;49.936;11.344;2023-03-01T03:38:23;97509.09;;;-0.86;65.32
25855;BME280;13680;49.936;11.344;2023-03-01T03:41:02;97514.56;;;-0.80;64.41
25855;BME280;13680;49.936;11.344;2023-03-01T03:43:29;97506.69;;;-0.94;64.88
25855;BME280;13680;49.936;11.344;2023-03-01T03:45:55;97506.66;;;-0.87;64.58
25855;BME280;13680;49.936;11.344;2023-03-01T03:48:23;97502.22;;;-0.93;64.81
25855;BME280;13680;49.936;11.344;2023-03-01T03:50:51;97509.34;;;-1.07;65.72
25855;BME280;13680;49.936;11.344;2023-03-01T03:53:17;97510.97;;;-0.93;64.81
25855;BME280;13680;49.936;11.344;2023-03-01T03:55:42;97513.41;;;-0.98;65.14
25855;BME280;13680;49.936;11.344;2023-03-01T03:58:10;97516.44;;;-1.01;65.57
25855;BME280;13680;49.936;11.344;2023-03-01T04:00:40;97510.56;;;-1.10;65.95
25855;BME280;13680;49.936;11.344;2023-03-01T04:03:06;97520.94;;;-1.08;65.83
25855;BME280;13680;49.936;11.344;2023-03-01T04:05:31;97522.94;;;-0.90;64.58
25855;BME280;13680;49.936;11.344;2023-03-01T04:07:57;97524.16;;;-1.06;65.22
25855;BME280;13680;49.936;11.344;2023-03-01T04:10:38;97513.19;;;-0.96;65.00
25855;BME280;13680;49.936;11.344;2023-03-01T04:13:05;97521.31;;;-0.98;65.03
25855;BME280;13680;49.936;11.344;2023-03-01T04:15:33;97518.44;;;-0.83;64.06
25855;BME280;13680;49.936;11.344;2023-03-01T04:17:59;97529.84;;;-0.96;64.34
25855;BME280;13680;49.936;11.344;2023-03-01T04:20:27;97520.91;;;-0.95;64.66
25855;BME280;13680;49.936;11.344;2023-03-01T04:23:06;97521.72;;;-1.01;65.27
25855;BME280;13680;49.936;11.344;2023-03-01T04:25:44;97519.72;;;-1.26;66.38
25855;BME280;13680;49.936;11.344;2023-03-01T04:28:10;97509.75;;;-1.24;65.60
25855;BME280;13680;49.936;11.344;2023-03-01T04:30:36;97513.66;;;-1.73;67.36
25855;BME280;13680;49.936;11.344;2023-03-01T04:33:06;97512.00;;;-1.34;67.05
25855;BME280;13680;49.936;11.344;2023-03-01T04:35:32;97508.78;;;-1.36;67.05
25855;BME280;13680;49.936;11.344;2023-03-01T04:37:58;97506.53;;;-1.19;66.10
25855;BME280;13680;49.936;11.344;2023-03-01T04:40:24;97501.66;;;-1.16;66.29
25855;BME280;13680;49.936;11.344;2023-03-01T04:42:50;97503.91;;;-1.39;66.64
25855;BME280;13680;49.936;11.344;2023-03-01T04:45:15;97507.75;;;-1.22;66.35
25855;BME280;13680;49.936;11.344;2023-03-01T04:47:42;97507.13;;;-1.24;65.88
25855;BME280;13680;49.936;11.344;2023-03-01T04:50:13;97514.66;;;-1.21;66.15
25855;BME280;13680;49.936;11.344;2023-03-01T04:52:39;97509.16;;;-1.12;65.51
25855;BME280;13680;49.936;11.344;2023-03-01T04:55:05;97507.34;;;-1.59;66.80
25855;BME280;13680;49.936;11.344;2023-03-01T04:57:31;97508.19;;;-1.52;67.19
25855;BME280;13680;49.936;11.344;2023-03-01T04:59:56;97508.78;;;-1.43;67.43
25855;BME280;13680;49.936;11.344;2023-03-01T05:02:22;97505.09;;;-1.22;66.60
25855;BME280;13680;49.936;11.344;2023-03-01T05:04:47;97505.50;;;-1.18;66.45
25855;BME280;13680;49.936;11.344;2023-03-01T05:07:12;97504.50;;;-1.30;66.41
25855;BME280;13680;49.936;11.344;2023-03-01T05:09:47;97497.78;;;-1.26;66.75
25855;BME280;13680;49.936;11.344;2023-03-01T05:12:14;97498.19;;;-1.23;66.40
25855;BME280;13680;49.936;11.344;2023-03-01T05:14:40;97492.72;;;-1.28;66.56
25855;BME280;13680;49.936;11.344;2023-03-01T05:17:06;97492.75;;;-1.35;66.50
25855;BME280;13680;49.936;11.344;2023-03-01T05:19:31;97476.13;;;-1.62;67.08
25855;BME280;13680;49.936;11.344;2023-03-01T05:21:58;97486.03;;;-1.37;66.54
25855;BME280;13680;49.936;11.344;2023-03-01T05:24:31;97479.75;;;-1.36;66.95
25855;BME280;13680;49.936;11.344;2023-03-01T05:26:57;97479.13;;;-1.25;66.76
25855;BME280;13680;49.936;11.344;2023-03-01T05:29:24;97475.47;;;-1.17;66.27
25855;BME280;13680;49.936;11.344;2023-03-01T05:32:00;97473.44;;;-1.08;65.40
25855;BME280;13680;49.936;11.344;2023-03-01T05:34:28;97478.13;;;-1.37;66.25
25855;BME280;13680;49.936;11.344;2023-03-01T05:36:54;97476.69;;;-1.20;65.82
25855;BME280;13680;49.936;11.344;2023-03-01T05:39:21;97476.28;;;-1.23;66.19
25855;BME280;13680;49.936;11.344;2023-03-01T05:41:48;97475.88;;;-1.20;65.76
25855;BME280;13680;49.936;11.344;2023-03-01T05:44:14;97485.19;;;-1.18;66.02
25855;BME280;13680;49.936;11.344;2023-03-01T05:46:39;97478.31;;;-1.25;65.47
25855;BME280;13680;49.936;11.344;2023-03-01T05:49:04;97487.69;;;-1.36;66.64
25855;BME280;13680;49.936;11.344;2023-03-01T05:51:30;97480.16;;;-1.39;66.29
25855;BME280;13680;49.936;11.344;2023-03-01T05:53:55;97480.34;;;-1.34;66.12
25855;BME280;13680;49.936;11.344;2023-03-01T05:56:21;97478.31;;;-1.19;66.10
25855;BME280;13680;49.936;11.344;2023-03-01T05:58:48;97473.81;;;-1.11;65.15
25855;BME280;13680;49.936;11.344;2023-03-01T06:01:13;97478.72;;;-1.22;65.43
25855;BME280;13680;49.936;11.344;2023-03-01T06:03:38;97468.97;;;-1.21;66.22
25855;BME280;13680;49.936;11.344;2023-03-01T06:06:04;97483.41;;;-1.30;65.83
25855;BME280;13680;49.936;11.344;2023-03-01T06:08:29;97485.84;;;-1.42;66.50
25855;BME280;13680;49.936;11.344;2023-03-01T06:10:55;97484.22;;;-1.30;66.06
25855;BME280;13680;49.936;11.344;2023-03-01T06:13:21;97484.41;;;-1.32;66.00
25855;BME280;13680;49.936;11.344;2023-03-01T06:15:46;97488.88;;;-1.25;65.83
25855;BME280;13680;49.936;11.344;2023-03-01T06:18:11;97483.38;;;-1.10;65.19
25855;BME280;13680;49.936;11.344;2023-03-01T06:20:37;97478.94;;;-1.23;66.05
25855;BME280;13680;49.936;11.344;2023-03-01T06:23:02;97483.19;;;-1.22;65.78
25855;BME280;13680;49.936;11.344;2023-03-01T06:25:27;97484.81;;;-1.14;66.07
25855;BME280;13680;49.936;11.344;2023-03-01T06:27:53;97472.00;;;-1.11;65.06
25855;BME280;13680;49.936;11.344;2023-03-01T06:30:19;97470.59;;;-1.27;66.04
25855;BME280;13680;49.936;11.344;2023-03-01T06:32:45;97470.56;;;-1.00;65.34
25855;BME280;13680;49.936;11.344;2023-03-01T06:35:12;97474.63;;;-1.04;65.06
25855;BME280;13680;49.936;11.344;2023-03-01T06:37:38;97478.66;;;-0.95;65.20
25855;BME280;13680;49.936;11.344;2023-03-01T06:40:05;97478.63;;;-0.88;64.60
25855;BME280;13680;49.936;11.344;2023-03-01T06:42:38;97472.75;;;-0.84;65.04
25855;BME280;13680;49.936;11.344;2023-03-01T06:45:05;97471.09;;;-0.78;64.52
25855;BME280;13680;49.936;11.344;2023-03-01T06:47:31;97470.44;;;-0.67;64.04
25855;BME280;13680;49.936;11.344;2023-03-01T06:49:58;97473.63;;;-0.51;63.94
25855;BME280;13680;49.936;11.344;2023-03-01T06:52:23;97476.06;;;-0.50;63.30
25855;BME280;13680;49.936;11.344;2023-03-01T06:54:49;97469.41;;;-0.66;64.51
25855;BME280;13680;49.936;11.344;2023-03-01T06:57:14;97479.50;;;-0.49;64.56
25855;BME280;13680;49.936;11.344;2023-03-01T06:59:39;97470.88;;;-0.31;64.29
25855;BME280;13680;49.936;11.344;2023-03-01T07:02:05;97465.56;;;-0.24;63.56
25855;BME280;13680;49.936;11.344;2023-03-01T07:04:31;97466.72;;;-0.13;63.58
25855;BME280;13680;49.936;11.344;2023-03-01T07:06:56;97469.09;;;-0.05;62.91
25855;BME280;13680;49.936;11.344;2023-03-01T07:09:24;97461.41;;;-0.07;63.22
25855;BME280;13680;49.936;11.344;2023-03-01T07:11:50;97464.75;;;0.07;62.55
25855;BME280;13680;49.936;11.344;2023-03-01T07:14:16;97458.19;;;0.16;62.24
25855;BME280;13680;49.936;11.344;2023-03-01T07:16:41;97456.59;;;0.15;63.24
25855;BME280;13680;49.936;11.344;2023-03-01T07:19:06;97461.44;;;0.19;62.83
25855;BME280;13680;49.936;11.344;2023-03-01T07:21:32;97460.91;;;0.35;62.55
25855;BME280;13680;49.936;11.344;2023-03-01T07:23:57;97453.91;;;0.41;62.37
25855;BME280;13680;49.936;11.344;2023-03-01T07:26:22;97460.47;;;0.38;62.48
25855;BME280;13680;49.936;11.344;2023-03-01T07:28:48;97460.34;;;0.52;62.28
25855;BME280;13680;49.936;11.344;2023-03-01T07:31:13;97467.22;;;0.59;61.87
25855;BME280;13680;49.936;11.344;2023-03-01T07:33:39;97466.13;;;0.67;62.09
25855;BME280;13680;49.936;11.344;2023-03-01T07:36:05;97466.44;;;0.77;61.61
25855;BME280;13680;49.936;11.344;2023-03-01T07:38:30;97466.88;;;0.93;60.60
25855;BME280;13680;49.936;11.344;2023-03-01T07:41:00;97459.97;;;1.10;60.41
25855;BME280;13680;49.936;11.344;2023-03-01T07:43:27;97458.28;;;0.97;61.22
25855;BME280;13680;49.936;11.344;2023-03-01T07:45:52;97447.34;;;1.12;60.16
25855;BME280;13680;49.936;11.344;2023-03-01T07:48:17;97446.81;;;1.04;59.56
25855;BME280;13680;49.936;11.344;2023-03-01T07:50:43;97438.28;;;1.02;60.06
25855;BME280;13680;49.936;11.344;2023-03-01T07:53:09;97431.16;;;1.02;59.78
25855;BME280;13680;49.936;11.344;2023-03-01T07:55:35;97430.25;;;1.27;59.54
25855;BME280;13680;49.936;11.344;2023-03-01T07:58:00;97429.88;;;1.42;59.35
25855;BME280;13680;49.936;11.344;2023-03-01T08:00:26;97428.97;;;1.48;58.56
25855;BME280;13680;49.936;11.344;2023-03-01T08:02:51;97424.72;;;1.28;59.60
25855;BME280;13680;49.936;11.344;2023-03-01T08:05:16;97417.59;;;1.59;57.81
25855;BME280;13680;49.936;11.344;2023-03-01T08:07:42;97413.25;;;1.65;57.99
25855;BME280;13680;49.936;11.344;2023-03-01T08:10:08;97417.88;;;1.70;57.63
25855;BME280;13680;49.936;11.344;2023-03-01T08:12:33;97411.06;;;2.04;57.51
25855;BME280;13680;49.936;11.344;2023-03-01T08:14:59;97414.34;;;1.88;57.30
25855;BME280;13680;49.936;11.344;2023-03-01T08:17:24;97417.38;;;2.03;56.46
25855;BME280;13680;49.936;11.344;2023-03-01T08:19:49;97413.81;;;2.09;56.71
25855;BME280;13680;49.936;11.344;2023-03-01T08:22:15;97416.25;;;2.11;55.51
25855;BME280;13680;49.936;11.344;2023-03-01T08:24:40;97410.94;;;1.99;55.49
25855;BME280;13680;49.936;11.344;2023-03-01T08:27:05;97405.50;;;1.94;55.27
25855;BME280;13680;49.936;11.344;2023-03-01T08:29:32;97404.91;;;1.92;56.05
25855;BME280;13680;49.936;11.344;2023-03-01T08:31:57;97405.63;;;1.99;56.13
25855;BME280;13680;49.936;11.344;2023-03-01T08:34:23;97413.59;;;2.11;55.78
25855;BME280;13680;49.936;11.344;2023-03-01T08:36:48;97420.41;;;2.19;54.75
25855;BME280;13680;49.936;11.344;2023-03-01T08:39:16;97408.53;;;2.09;55.53
25855;BME280;13680;49.936;11.344;2023-03-01T08:41:43;97410.38;;;2.33;56.37
25855;BME280;13680;49.936;11.344;2023-03-01T08:44:10;97404.72;;;2.76;54.67
25855;BME280;13680;49.936;11.344;2023-03-01T08:46:38;97414.63;;;2.93;53.33
25855;BME280;13680;49.936;11.344;2023-03-01T08:49:12;97411.41;;;3.32;53.61
25855;BME280;13680;49.936;11.344;2023-03-01T08:51:38;97410.44;;;3.50;53.40
25855;BME280;13680;49.936;11.344;2023-03-01T08:54:05;97410.56;;;3.43;52.21
25855;BME280;13680;49.936;11.344;2023-03-01T08:56:31;97398.63;;;3.57;52.19
25855;BME280;13680;49.936;11.344;2023-03-01T08:58:56;97412.97;;;3.56;51.93
25855;BME280;13680;49.936;11.344;2023-03-01T09:01:21;97403.59;;;3.54;51.76
25855;BME280;13680;49.936;11.344;2023-03-01T09:03:47;97400.72;;;3.72;51.69
25855;BME280;13680;49.936;11.344;2023-03-01T09:06:12;97405.94;;;3.96;50.92
25855;BME280;13680;49.936;11.344;2023-03-01T09:08:41;97407.72;;;4.07;51.00
25855;BME280;13680;49.936;11.344;2023-03-01T09:11:08;97401.44;;;4.14;49.58
25855;BME280;13680;49.936;11.344;2023-03-01T09:13:34;97401.69;;;4.29;50.38
25855;BME280;13680;49.936;11.344;2023-03-01T09:16:04;97404.59;;;4.28;49.52
25855;BME280;13680;49.936;11.344;2023-03-01T09:18:30;97391.91;;;4.52;49.31
25855;BME280;13680;49.936;11.344;2023-03-01T09:21:10;97393.66;;;4.63;48.76
25855;BME280;13680;49.936;11.344;2023-03-01T09:23:38;97397.78;;;4.71;48.97
25855;BME280;13680;49.936;11.344;2023-03-01T09:26:07;97389.50;;;5.12;48.13
25855;BME280;13680;49.936;11.344;2023-03-01T09:28:34;97397.69;;;5.27;47.94
25855;BME280;13680;49.936;11.344;2023-03-01T09:31:00;97387.59;;;5.34;48.55
25855;BME280;13680;49.936;11.344;2023-03-01T09:33:27;97382.84;;;5.64;46.84
25855;BME280;13680;49.936;11.344;2023-03-01T09:36:01;97387.50;;;5.24;47.21
25855;BME280;13680;49.936;11.344;2023-03-01T09:38:27;97381.97;;;5.85;45.72
25855;BME280;13680;49.936;11.344;2023-03-01T09:40:53;97378.91;;;6.31;45.56
25855;BME280;13680;49.936;11.344;2023-03-01T09:43:29;97373.34;;;6.00;46.18
25855;BME280;13680;49.936;11.344;2023-03-01T09:46:02;97375.84;;;6.12;45.05
25855;BME280;13680;49.936;11.344;2023-03-01T09:48:32;97371.69;;;6.27;45.28
25855;BME280;13680;49.936;11.344;2023-03-01T09:51:03;97359.94;;;6.70;44.66
25855;BME280;13680;49.936;11.344;2023-03-01T09:53:32;97364.72;;;6.26;44.60
25855;BME280;13680;49.936;11.344;2023-03-01T09:56:11;97368.94;;;6.54;43.47
25855;BME280;13680;49.936;11.344;2023-03-01T09:58:48;97370.19;;;6.84;43.44
25855;BME280;13680;49.936;11.344;2023-03-01T10:01:30;97351.16;;;6.75;44.02
25855;BME280;13680;49.936;11.344;2023-03-01T10:06:55;97362.34;;;7.30;42.10
25855;BME280;13680;49.936;11.344;2023-03-01T10:09:23;97354.56;;;6.65;42.78
25855;BME280;13680;49.936;11.344;2023-03-01T10:11:50;97353.00;;;6.75;42.71
25855;BME280;13680;49.936;11.344;2023-03-01T10:14:35;97344.84;;;7.02;41.84
25855;BME280;13680;49.936;11.344;2023-03-01T10:17:04;97350.88;;;7.50;41.91
25855;BME280;13680;49.936;11.344;2023-03-01T10:19:42;97340.72;;;7.58;42.12
25855;BME280;13680;49.936;11.344;2023-03-01T10:22:18;97344.25;;;7.94;40.75
25855;BME280;13680;49.936;11.344;2023-03-01T10:24:47;97338.31;;;8.39;41.05
25855;BME280;13680;49.936;11.344;2023-03-01T10:27:53;97335.91;;;7.65;40.88
25855;BME280;13680;49.936;11.344;2023-03-01T10:30:32;97342.06;;;6.76;41.91
25855;BME280;13680;49.936;11.344;2023-03-01T10:32:59;97335.66;;;8.18;41.04
25855;BME280;13680;49.936;11.344;2023-03-01T10:35:28;97332.44;;;8.21;40.64
25855;BME280;13680;49.936;11.344;2023-03-01T10:38:11;97329.50;;;8.17;41.41
25855;BME280;13680;49.936;11.344;2023-03-01T10:40:57;97327.53;;;8.75;38.81
25855;BME280;13680;49.936;11.344;2023-03-01T10:43:49;97327.63;;;8.49;39.27
25855;BME280;13680;49.936;11.344;2023-03-01T10:46:30;97334.06;;;8.22;40.75
25855;BME280;13680;49.936;11.344;2023-03-01T10:49:10;97327.09;;;8.11;40.28
25855;BME280;13680;49.936;11.344;2023-03-01T10:51:39;97324.97;;;8.02;40.70
25855;BME280;13680;49.936;11.344;2023-03-01T10:54:15;97317.97;;;8.32;40.73
25855;BME280;13680;49.936;11.344;2023-03-01T10:56:49;97315.84;;;8.03;41.21
25855;BME280;13680;49.936;11.344;2023-03-01T10:59:28;97306.75;;;8.05;41.19
25855;BME280;13680;49.936;11.344;2023-03-01T11:04:35;97299.75;;;9.15;39.77
25855;BME280;13680;49.936;11.344;2023-03-01T11:07:02;97295.19;;;9.16;39.66
25855;BME280;13680;49.936;11.344;2023-03-01T11:09:31;97300.06;;;9.04;40.14
25855;BME280;13680;49.936;11.344;2023-03-01T11:12:03;97297.84;;;9.21;38.89
25855;BME280;13680;49.936;11.344;2023-03-01T11:14:36;97286.22;;;9.71;38.94
25855;BME280;13680;49.936;11.344;2023-03-01T11:17:26;97281.47;;;9.62;37.50
25855;BME280;13680;49.936;11.344;2023-03-01T11:22:49;97267.59;;;10.43;35.90
25855;BME280;13680;49.936;11.344;2023-03-01T11:25:17;97271.97;;;8.91;38.31
25855;BME280;13680;49.936;11.344;2023-03-01T11:27:45;97271.63;;;9.03;38.19
25855;BME280;13680;49.936;11.344;2023-03-01T11:31:07;97257.50;;;9.37;35.86
25855;BME280;13680;49.936;11.344;2023-03-01T11:33:33;97264.22;;;8.89;37.60
25855;BME280;13680;49.936;11.344;2023-03-01T11:36:07;97255.53;;;9.47;36.80
25855;BME280;13680;49.936;11.344;2023-03-01T11:38:38;97247.16;;;10.18;35.67
25855;BME280;13680;49.936;11.344;2023-03-01T11:43:52;97245.31;;;10.13;35.58
25855;BME280;13680;49.936;11.344;2023-03-01T11:51:59;97230.81;;;10.63;34.30
25855;BME280;13680;49.936;11.344;2023-03-01T12:05:53;97213.47;;;11.65;33.31
25855;BME280;13680;49.936;11.344;2023-03-01T12:14:38;97195.72;;;12.66;33.29
25855;BME280;13680;49.936;11.344;2023-03-01T12:22:44;97178.56;;;12.20;33.62
25855;BME280;13680;49.936;11.344;2023-03-01T12:38:41;97161.63;;;13.44;32.40
25855;BME280;13680;49.936;11.344;2023-03-01T12:41:21;97155.63;;;14.18;31.86
25855;BME280;13680;49.936;11.344;2023-03-01T12:46:32;97160.78;;;14.37;30.76
25855;BME280;13680;49.936;11.344;2023-03-01T12:49:10;97156.19;;;13.98;30.41
25855;BME280;13680;49.936;11.344;2023-03-01T12:51:39;97147.47;;;14.59;30.40
25855;BME280;13680;49.936;11.344;2023-03-01T12:54:14;97143.81;;;14.63;31.09
25855;BME280;13680;49.936;11.344;2023-03-01T12:56:40;97147.38;;;13.52;32.27
25855;BME280;13680;49.936;11.344;2023-03-01T12:59:17;97143.53;;;13.07;32.23
25855;BME280;13680;49.936;11.344;2023-03-01T13:02:05;97131.44;;;14.13;31.04
25855;BME280;13680;49.936;11.344;2023-03-01T13:04:50;97136.13;;;13.13;31.86
25855;BME280;13680;49.936;11.344;2023-03-01T13:07:27;97130.22;;;12.38;33.63
25855;BME280;13680;49.936;11.344;2023-03-01T13:10:20;97136.69;;;13.47;31.87
25855;BME280;13680;49.936;11.344;2023-03-01T13:15:35;97131.25;;;12.14;34.08
25855;BME280;13680;49.936;11.344;2023-03-01T13:18:47;97115.81;;;13.16;32.73
25855;BME280;13680;49.936;11.344;2023-03-01T13:20:52;97126.91;;;12.41;32.59
25855;BME280;13680;49.936;11.344;2023-03-01T13:33:58;97120.50;;;13.47;32.68
25855;BME280;13680;49.936;11.344;2023-03-01T13:38:56;97113.97;;;13.25;33.46
25855;BME280;13680;49.936;11.344;2023-03-01T13:46:54;97123.00;;;13.20;33.93
25855;BME280;13680;49.936;11.344;2023-03-01T13:49:27;97125.66;;;12.10;34.53
25855;BME280;13680;49.936;11.344;2023-03-01T13:51:53;97111.00;;;13.89;32.81
25855;BME280;13680;49.936;11.344;2023-03-01T13:54:29;97124.47;;;13.04;33.29
25855;BME280;13680;49.936;11.344;2023-03-01T13:56:58;97114.50;;;13.58;33.64
25855;BME280;13680;49.936;11.344;2023-03-01T13:59:24;97118.53;;;14.77;31.62
25855;BME280;13680;49.936;11.344;2023-03-01T14:01:59;97110.78;;;13.46;31.92
25855;BME280;13680;49.936;11.344;2023-03-01T14:04:32;97120.03;;;13.53;32.07
25855;BME280;13680;49.936;11.344;2023-03-01T14:07:17;97110.75;;;12.41;33.91
25855;BME280;13680;49.936;11.344;2023-03-01T14:09:45;97104.16;;;11.91;35.28
25855;BME280;13680;49.936;11.344;2023-03-01T14:14:56;97093.31;;;13.83;33.23
25855;BME280;13680;49.936;11.344;2023-03-01T14:17:41;97095.13;;;13.34;32.57
25855;BME280;13680;49.936;11.344;2023-03-01T14:20:27;97092.75;;;13.64;32.26
25855;BME280;13680;49.936;11.344;2023-03-01T14:22:57;97084.91;;;13.45;33.01
25855;BME280;13680;49.936;11.344;2023-03-01T14:25:29;97094.41;;;14.31;31.64
25855;BME280;13680;49.936;11.344;2023-03-01T14:27:57;97091.16;;;14.03;32.46